Occidental, CA (95465)

2:32 PM PDT on October 24, 2014 (GMT -0700)
Joy Woods | Change Station
CLOSE
Current Station
Personal Weather Station
Location: Occidental, CA
Elevation: 840 ft
Nearby Weather Stations

Elev 840 ft 38.38 °N, 122.97 °W | Updated 8 seconds ago

Scattered Clouds
Scattered Clouds
64.8 °F
Feels Like 64.8 °F
N
0.0
Wind Variable Wind from SW
Gusts 0.0 mph

Today
High -- | Low -- °F
--% Chance of Precip.
Yesterday
High -- | Low -- °F
Precip. -- in
7:29 AM 6:21 PM
New Moon, 1% visible
Pressure 29.87 in
Visibility 10.0 miles
Clouds Scattered Clouds 5000 ft
Dew Point 57 °F
Humidity 77%
Rainfall 0.00 in
Snow Depth Not available.
UV 4 out of 12
Pollen 2.60 out of 12
Air Quality Not available.
Flu Activity Not available.
METAR KSTS 242053Z 17006KT 10SM SCT050 23/13 A2989 RMK AO2 SLP115 T02280128 58021

More Conditions Fewer Conditions

Pressure 29.87 in
Visibility 10.0 miles
Clouds Scattered Clouds 5000 ft
Dew Point 57 °F
Humidity 77%
Rainfall 0.00 in
Snow Depth Not available.
UV 4 out of 12
Pollen 2.60 out of 12
Air Quality Not available.
Flu Activity Not available.
METAR KSTS 242053Z 17006KT 10SM SCT050 23/13 A2989 RMK AO2 SLP115 T02280128 58021

More Conditions Fewer Conditions

10-Day Weather Forecast

Almanac

Astronomy

Oct. 24, 2014 Rise Set
Actual Time 7:29 AM PDT 6:21 PM PDT
Civil Twilight 7:02 AM PDT 6:48 PM PDT
Nautical Twilight 6:31 AM PDT 7:19 PM PDT
Astronomical Twilight 6:01 AM PDT 7:50 PM PDT
Moon 8:13 AM PDT 7:06 PM PDT
Length of Visible Light 11h 45m
Length of Day
10h 51m
Tomorrow will be 2m 18s shorter.
New Moon, 1% of the Moon is Illuminated
Today
New Moon
Oct 30
First Quarter
Nov 6
Full
Nov 14
Last Quarter
Nov 22
New

Today's Extremes

State Highs State Lows

Community

WunderPhotos

Upload Photos

1,764,676 photos uploaded!

WunderBlogs® & News

By Dr. Jeff Masters
Director of Meteorology, Weather Underground
By Kari Strenfel
Meteorologist, Weather Underground
By Christopher C. Burt
Weather Historian, Weather Underground
October 24, 2014
October 24, 2014
October 24, 2014

Nearby

Snow Depth

Station Depth Elevation
CSS Lab 0 in 6900 ft
Rubicon #2 0 in 7500 ft
Echo Peak 0 in 7800 ft
Leavitt Meadows 0 in 7200 ft
Summit Meadow 0 in 9122 ft

Earthquake Activity

City Distance Mag. Time & Date
No recent earthquake activity has been reported nearby.
Minimum magnitude displayed is 2.5.

Coastal Water Temperatures

Place Temperature
Point Reyes, CA 62.1 °F
Arena Cove, CA 60.1 °F
San Francisco, CA 63.0 °F
Richmond, CA 64.0 °F

Nearby Weather Stations